sensor_id;sensor_type;location;lat;lon;timestamp;temperature;humidity
42913;DHT22;50720;54.324;18.558;2023-02-11T00:02:23;3.80;99.90
42913;DHT22;50720;54.324;18.558;2023-02-11T00:04:56;3.80;99.90
42913;DHT22;50720;54.324;18.558;2023-02-11T00:07:28;3.80;99.90
42913;DHT22;50720;54.324;18.558;2023-02-11T00:09:58;3.80;99.90
42913;DHT22;50720;54.324;18.558;2023-02-11T00:12:30;3.80;99.90
42913;DHT22;50720;54.324;18.558;2023-02-11T00:15:00;3.80;99.90
42913;DHT22;50720;54.324;18.558;2023-02-11T00:17:29;3.70;99.90
42913;DHT22;50720;54.324;18.558;2023-02-11T00:20:00;3.80;99.90
42913;DHT22;50720;54.324;18.558;2023-02-11T00:22:29;3.80;99.90
42913;DHT22;50720;54.324;18.558;2023-02-11T00:24:59;3.80;99.90
42913;DHT22;50720;54.324;18.558;2023-02-11T00:27:30;3.80;99.90
42913;DHT22;50720;54.324;18.558;2023-02-11T00:30:00;3.80;99.90
42913;DHT22;50720;54.324;18.558;2023-02-11T00:32:32;3.80;99.90
42913;DHT22;50720;54.324;18.558;2023-02-11T00:35:01;3.90;99.90
42913;DHT22;50720;54.324;18.558;2023-02-11T00:37:31;3.90;99.90
42913;DHT22;50720;54.324;18.558;2023-02-11T00:40:03;3.90;99.90
42913;DHT22;50720;54.324;18.558;2023-02-11T00:42:34;3.90;99.90
42913;DHT22;50720;54.324;18.558;2023-02-11T00:45:04;3.90;99.90
42913;DHT22;50720;54.324;18.558;2023-02-11T00:47:34;3.90;99.90
42913;DHT22;50720;54.324;18.558;2023-02-11T00:50:05;3.90;99.90
42913;DHT22;50720;54.324;18.558;2023-02-11T00:52:35;3.90;99.90
42913;DHT22;50720;54.324;18.558;2023-02-11T00:55:05;3.90;99.90
42913;DHT22;50720;54.324;18.558;2023-02-11T00:57:36;4.00;99.90
42913;DHT22;50720;54.324;18.558;2023-02-11T01:00:07;4.00;99.90
42913;DHT22;50720;54.324;18.558;2023-02-11T01:02:37;4.00;99.90
42913;DHT22;50720;54.324;18.558;2023-02-11T01:05:07;4.00;99.90
42913;DHT22;50720;54.324;18.558;2023-02-11T01:07:37;4.00;99.90
42913;DHT22;50720;54.324;18.558;2023-02-11T01:10:07;4.00;99.90
42913;DHT22;50720;54.324;18.558;2023-02-11T01:12:39;4.00;99.90
42913;DHT22;50720;54.324;18.558;2023-02-11T01:15:10;4.00;99.90
42913;DHT22;50720;54.324;18.558;2023-02-11T01:17:41;4.00;99.90
42913;DHT22;50720;54.324;18.558;2023-02-11T01:20:14;4.00;99.90
42913;DHT22;50720;54.324;18.558;2023-02-11T01:22:44;4.00;99.90
42913;DHT22;50720;54.324;18.558;2023-02-11T01:25:14;4.00;99.90
42913;DHT22;50720;54.324;18.558;2023-02-11T01:27:45;4.00;99.90
42913;DHT22;50720;54.324;18.558;2023-02-11T01:30:15;4.00;99.90
42913;DHT22;50720;54.324;18.558;2023-02-11T01:32:44;4.00;99.90
42913;DHT22;50720;54.324;18.558;2023-02-11T01:35:15;4.00;99.90
42913;DHT22;50720;54.324;18.558;2023-02-11T01:37:44;4.00;99.90
42913;DHT22;50720;54.324;18.558;2023-02-11T01:40:16;4.00;99.90
42913;DHT22;50720;54.324;18.558;2023-02-11T01:42:47;3.90;99.90
42913;DHT22;50720;54.324;18.558;2023-02-11T01:48:25;3.90;99.90
42913;DHT22;50720;54.324;18.558;2023-02-11T01:51:00;3.80;99.90
42913;DHT22;50720;54.324;18.558;2023-02-11T01:53:31;3.80;99.90
42913;DHT22;50720;54.324;18.558;2023-02-11T01:56:19;3.80;99.90
42913;DHT22;50720;54.324;18.558;2023-02-11T01:59:14;3.70;99.90
42913;DHT22;50720;54.324;18.558;2023-02-11T02:01:49;3.60;99.90
42913;DHT22;50720;54.324;18.558;2023-02-11T02:04:20;3.60;99.90
42913;DHT22;50720;54.324;18.558;2023-02-11T02:07:00;3.60;99.90
42913;DHT22;50720;54.324;18.558;2023-02-11T02:09:36;3.50;99.90
42913;DHT22;50720;54.324;18.558;2023-02-11T02:12:07;3.50;99.90
42913;DHT22;50720;54.324;18.558;2023-02-11T02:14:39;3.50;99.90
42913;DHT22;50720;54.324;18.558;2023-02-11T02:17:14;3.40;99.90
42913;DHT22;50720;54.324;18.558;2023-02-11T02:20:17;3.50;99.90
42913;DHT22;50720;54.324;18.558;2023-02-11T02:23:03;3.40;99.90
42913;DHT22;50720;54.324;18.558;2023-02-11T02:25:59;3.50;99.90
42913;DHT22;50720;54.324;18.558;2023-02-11T02:28:53;3.50;99.90
42913;DHT22;50720;54.324;18.558;2023-02-11T02:31:40;3.50;99.90
42913;DHT22;50720;54.324;18.558;2023-02-11T02:34:18;3.60;99.90
42913;DHT22;50720;54.324;18.558;2023-02-11T02:36:56;3.50;99.90
42913;DHT22;50720;54.324;18.558;2023-02-11T02:39:32;3.60;99.90
42913;DHT22;50720;54.324;18.558;2023-02-11T02:42:03;3.60;99.90
42913;DHT22;50720;54.324;18.558;2023-02-11T02:44:33;3.60;99.90
42913;DHT22;50720;54.324;18.558;2023-02-11T02:47:03;3.60;99.90
42913;DHT22;50720;54.324;18.558;2023-02-11T02:49:34;3.60;99.90
42913;DHT22;50720;54.324;18.558;2023-02-11T02:52:24;3.50;99.90
42913;DHT22;50720;54.324;18.558;2023-02-11T02:55:23;3.60;99.90
42913;DHT22;50720;54.324;18.558;2023-02-11T03:01:07;3.60;99.90
42913;DHT22;50720;54.324;18.558;2023-02-11T03:03:44;3.60;99.90
42913;DHT22;50720;54.324;18.558;2023-02-11T03:06:26;3.60;99.90
42913;DHT22;50720;54.324;18.558;2023-02-11T03:09:03;3.60;99.90
42913;DHT22;50720;54.324;18.558;2023-02-11T03:11:39;3.60;99.90
42913;DHT22;50720;54.324;18.558;2023-02-11T03:14:11;3.60;99.90
42913;DHT22;50720;54.324;18.558;2023-02-11T03:16:43;3.60;99.90
42913;DHT22;50720;54.324;18.558;2023-02-11T03:19:16;3.60;99.90
42913;DHT22;50720;54.324;18.558;2023-02-11T03:21:51;3.70;99.90
42913;DHT22;50720;54.324;18.558;2023-02-11T03:24:27;3.70;99.90
42913;DHT22;50720;54.324;18.558;2023-02-11T03:27:02;3.70;99.90
42913;DHT22;50720;54.324;18.558;2023-02-11T03:29:36;3.70;99.90
42913;DHT22;50720;54.324;18.558;2023-02-11T03:32:13;3.70;99.90
42913;DHT22;50720;54.324;18.558;2023-02-11T03:34:48;3.70;99.90
42913;DHT22;50720;54.324;18.558;2023-02-11T03:37:23;3.70;99.90
42913;DHT22;50720;54.324;18.558;2023-02-11T03:39:58;3.70;99.90
42913;DHT22;50720;54.324;18.558;2023-02-11T03:42:31;3.70;99.90
42913;DHT22;50720;54.324;18.558;2023-02-11T03:45:06;3.60;99.90
42913;DHT22;50720;54.324;18.558;2023-02-11T03:47:38;3.50;99.90
42913;DHT22;50720;54.324;18.558;2023-02-11T03:50:10;3.50;99.90
42913;DHT22;50720;54.324;18.558;2023-02-11T03:52:43;3.50;99.90
42913;DHT22;50720;54.324;18.558;2023-02-11T03:55:18;3.40;99.90
42913;DHT22;50720;54.324;18.558;2023-02-11T03:57:48;3.40;99.90
42913;DHT22;50720;54.324;18.558;2023-02-11T04:00:17;3.40;99.90
42913;DHT22;50720;54.324;18.558;2023-02-11T04:02:47;3.40;99.90
42913;DHT22;50720;54.324;18.558;2023-02-11T04:05:17;3.40;99.90
42913;DHT22;50720;54.324;18.558;2023-02-11T04:07:48;3.40;99.90
42913;DHT22;50720;54.324;18.558;2023-02-11T04:10:18;3.40;99.90
42913;DHT22;50720;54.324;18.558;2023-02-11T04:12:48;3.30;99.90
42913;DHT22;50720;54.324;18.558;2023-02-11T04:15:18;3.40;99.90
42913;DHT22;50720;54.324;18.558;2023-02-11T04:17:48;3.40;99.90
42913;DHT22;50720;54.324;18.558;2023-02-11T04:20:17;3.40;99.90
42913;DHT22;50720;54.324;18.558;2023-02-11T04:22:49;3.30;99.90
42913;DHT22;50720;54.324;18.558;2023-02-11T04:25:19;3.30;99.90
42913;DHT22;50720;54.324;18.558;2023-02-11T04:27:48;3.30;99.90
42913;DHT22;50720;54.324;18.558;2023-02-11T04:30:18;3.30;99.90
42913;DHT22;50720;54.324;18.558;2023-02-11T04:32:47;3.30;99.90
42913;DHT22;50720;54.324;18.558;2023-02-11T04:35:17;3.30;99.90
42913;DHT22;50720;54.324;18.558;2023-02-11T04:37:48;3.30;99.90
42913;DHT22;50720;54.324;18.558;2023-02-11T04:40:18;3.30;99.90
42913;DHT22;50720;54.324;18.558;2023-02-11T04:42:48;3.30;99.90
42913;DHT22;50720;54.324;18.558;2023-02-11T04:45:17;3.30;99.90
42913;DHT22;50720;54.324;18.558;2023-02-11T04:47:47;3.30;99.90
42913;DHT22;50720;54.324;18.558;2023-02-11T04:50:17;3.30;99.90
42913;DHT22;50720;54.324;18.558;2023-02-11T04:52:49;3.40;99.90
42913;DHT22;50720;54.324;18.558;2023-02-11T04:55:18;3.40;99.90
42913;DHT22;50720;54.324;18.558;2023-02-11T04:57:47;3.40;99.90
42913;DHT22;50720;54.324;18.558;2023-02-11T05:00:17;3.40;99.90
42913;DHT22;50720;54.324;18.558;2023-02-11T05:02:47;3.40;99.90
42913;DHT22;50720;54.324;18.558;2023-02-11T05:05:16;3.40;99.90
42913;DHT22;50720;54.324;18.558;2023-02-11T05:07:47;3.40;99.90
42913;DHT22;50720;54.324;18.558;2023-02-11T05:10:17;3.40;99.90
42913;DHT22;50720;54.324;18.558;2023-02-11T05:12:47;3.40;99.90
42913;DHT22;50720;54.324;18.558;2023-02-11T05:15:21;3.50;99.90
42913;DHT22;50720;54.324;18.558;2023-02-11T05:17:50;3.50;99.90
42913;DHT22;50720;54.324;18.558;2023-02-11T05:20:20;3.50;99.90
42913;DHT22;50720;54.324;18.558;2023-02-11T05:22:51;3.50;99.90
42913;DHT22;50720;54.324;18.558;2023-02-11T05:25:21;3.50;99.90
42913;DHT22;50720;54.324;18.558;2023-02-11T05:27:50;3.50;99.90
42913;DHT22;50720;54.324;18.558;2023-02-11T05:30:20;3.50;99.90
42913;DHT22;50720;54.324;18.558;2023-02-11T05:32:50;3.50;99.90
42913;DHT22;50720;54.324;18.558;2023-02-11T05:35:20;3.50;99.90
42913;DHT22;50720;54.324;18.558;2023-02-11T05:37:51;3.50;99.90
42913;DHT22;50720;54.324;18.558;2023-02-11T05:40:20;3.50;99.90
42913;DHT22;50720;54.324;18.558;2023-02-11T05:42:50;3.50;99.90
42913;DHT22;50720;54.324;18.558;2023-02-11T05:45:19;3.50;99.90
42913;DHT22;50720;54.324;18.558;2023-02-11T05:47:50;3.50;99.90
42913;DHT22;50720;54.324;18.558;2023-02-11T05:50:19;3.50;99.90
42913;DHT22;50720;54.324;18.558;2023-02-11T05:52:50;3.50;99.90
42913;DHT22;50720;54.324;18.558;2023-02-11T05:55:19;3.60;99.90
42913;DHT22;50720;54.324;18.558;2023-02-11T05:57:49;3.60;99.90
42913;DHT22;50720;54.324;18.558;2023-02-11T06:00:19;3.60;99.90
42913;DHT22;50720;54.324;18.558;2023-02-11T06:02:48;3.60;99.90
42913;DHT22;50720;54.324;18.558;2023-02-11T06:05:19;3.60;99.90
42913;DHT22;50720;54.324;18.558;2023-02-11T06:07:49;3.60;99.90
42913;DHT22;50720;54.324;18.558;2023-02-11T06:10:20;3.70;99.90
42913;DHT22;50720;54.324;18.558;2023-02-11T06:12:50;3.70;99.90
42913;DHT22;50720;54.324;18.558;2023-02-11T06:15:20;3.70;99.90
42913;DHT22;50720;54.324;18.558;2023-02-11T06:17:50;3.70;99.90
42913;DHT22;50720;54.324;18.558;2023-02-11T06:20:19;3.80;99.90
42913;DHT22;50720;54.324;18.558;2023-02-11T06:22:49;3.80;99.90
42913;DHT22;50720;54.324;18.558;2023-02-11T06:25:20;3.80;99.90
42913;DHT22;50720;54.324;18.558;2023-02-11T06:27:50;3.90;99.90
42913;DHT22;50720;54.324;18.558;2023-02-11T06:30:19;3.90;99.90
42913;DHT22;50720;54.324;18.558;2023-02-11T06:32:49;3.90;99.90
42913;DHT22;50720;54.324;18.558;2023-02-11T06:35:19;3.90;99.90
42913;DHT22;50720;54.324;18.558;2023-02-11T06:37:49;4.00;99.90
42913;DHT22;50720;54.324;18.558;2023-02-11T06:40:22;4.00;99.90
42913;DHT22;50720;54.324;18.558;2023-02-11T06:42:51;4.00;99.90
42913;DHT22;50720;54.324;18.558;2023-02-11T06:45:21;4.00;99.90
42913;DHT22;50720;54.324;18.558;2023-02-11T06:47:51;4.00;99.90
42913;DHT22;50720;54.324;18.558;2023-02-11T06:50:21;4.00;99.90
42913;DHT22;50720;54.324;18.558;2023-02-11T06:52:51;4.00;99.90
42913;DHT22;50720;54.324;18.558;2023-02-11T06:55:22;4.00;99.90
42913;DHT22;50720;54.324;18.558;2023-02-11T06:57:51;4.00;99.90
42913;DHT22;50720;54.324;18.558;2023-02-11T07:00:21;4.10;99.90
42913;DHT22;50720;54.324;18.558;2023-02-11T07:02:50;4.10;99.90
42913;DHT22;50720;54.324;18.558;2023-02-11T07:05:20;4.10;99.90
42913;DHT22;50720;54.324;18.558;2023-02-11T07:07:50;4.20;99.90
42913;DHT22;50720;54.324;18.558;2023-02-11T07:10:19;4.20;99.90
42913;DHT22;50720;54.324;18.558;2023-02-11T07:12:50;4.20;99.90
42913;DHT22;50720;54.324;18.558;2023-02-11T07:15:20;4.20;99.90
42913;DHT22;50720;54.324;18.558;2023-02-11T07:17:49;4.20;99.90
42913;DHT22;50720;54.324;18.558;2023-02-11T07:20:19;4.30;99.90
42913;DHT22;50720;54.324;18.558;2023-02-11T07:22:48;4.30;99.90
42913;DHT22;50720;54.324;18.558;2023-02-11T07:25:18;4.30;99.90
42913;DHT22;50720;54.324;18.558;2023-02-11T07:27:47;4.40;99.90
42913;DHT22;50720;54.324;18.558;2023-02-11T07:30:19;4.40;99.90
42913;DHT22;50720;54.324;18.558;2023-02-11T07:32:49;4.40;99.90
42913;DHT22;50720;54.324;18.558;2023-02-11T07:35:18;4.50;99.90
42913;DHT22;50720;54.324;18.558;2023-02-11T07:37:48;4.40;99.90
42913;DHT22;50720;54.324;18.558;2023-02-11T07:40:17;4.40;99.90
42913;DHT22;50720;54.324;18.558;2023-02-11T07:42:47;4.50;99.90
42913;DHT22;50720;54.324;18.558;2023-02-11T07:45:18;4.50;99.90
42913;DHT22;50720;54.324;18.558;2023-02-11T07:47:48;4.50;99.90
42913;DHT22;50720;54.324;18.558;2023-02-11T07:50:17;4.50;99.90
42913;DHT22;50720;54.324;18.558;2023-02-11T07:52:47;4.50;99.90
42913;DHT22;50720;54.324;18.558;2023-02-11T07:55:17;4.60;99.90
42913;DHT22;50720;54.324;18.558;2023-02-11T07:57:46;4.60;99.90
42913;DHT22;50720;54.324;18.558;2023-02-11T08:00:19;4.60;99.90
42913;DHT22;50720;54.324;18.558;2023-02-11T08:02:48;4.60;99.90
42913;DHT22;50720;54.324;18.558;2023-02-11T08:05:18;4.70;99.90
42913;DHT22;50720;54.324;18.558;2023-02-11T08:07:50;4.80;99.90
42913;DHT22;50720;54.324;18.558;2023-02-11T08:10:20;4.80;99.90
42913;DHT22;50720;54.324;18.558;2023-02-11T08:12:50;4.80;99.90
42913;DHT22;50720;54.324;18.558;2023-02-11T08:15:22;4.80;99.90
42913;DHT22;50720;54.324;18.558;2023-02-11T08:17:51;4.90;99.90
42913;DHT22;50720;54.324;18.558;2023-02-11T08:20:21;5.00;99.90
42913;DHT22;50720;54.324;18.558;2023-02-11T08:22:51;5.00;99.90
42913;DHT22;50720;54.324;18.558;2023-02-11T08:25:21;5.00;99.90
42913;DHT22;50720;54.324;18.558;2023-02-11T08:27:50;5.10;99.90
42913;DHT22;50720;54.324;18.558;2023-02-11T08:30:22;5.10;99.90
42913;DHT22;50720;54.324;18.558;2023-02-11T08:32:54;5.20;99.90
42913;DHT22;50720;54.324;18.558;2023-02-11T08:35:24;5.20;99.90
42913;DHT22;50720;54.324;18.558;2023-02-11T08:37:54;5.20;99.90
42913;DHT22;50720;54.324;18.558;2023-02-11T08:40:23;5.20;99.90
42913;DHT22;50720;54.324;18.558;2023-02-11T08:42:53;3.90;99.90
42913;DHT22;50720;54.324;18.558;2023-02-11T08:45:25;5.30;99.90
42913;DHT22;50720;54.324;18.558;2023-02-11T08:47:54;5.30;99.90
42913;DHT22;50720;54.324;18.558;2023-02-11T08:50:24;5.30;99.90
42913;DHT22;50720;54.324;18.558;2023-02-11T08:52:55;5.40;99.90
42913;DHT22;50720;54.324;18.558;2023-02-11T08:55:24;5.40;99.90
42913;DHT22;50720;54.324;18.558;2023-02-11T08:57:54;5.50;99.90
42913;DHT22;50720;54.324;18.558;2023-02-11T09:00:25;5.50;99.90
42913;DHT22;50720;54.324;18.558;2023-02-11T09:02:55;5.60;99.90
42913;DHT22;50720;54.324;18.558;2023-02-11T09:05:25;5.70;99.90
42913;DHT22;50720;54.324;18.558;2023-02-11T09:07:55;5.70;99.90
42913;DHT22;50720;54.324;18.558;2023-02-11T09:10:24;5.80;99.90
42913;DHT22;50720;54.324;18.558;2023-02-11T09:12:54;5.80;99.90
42913;DHT22;50720;54.324;18.558;2023-02-11T09:15:25;5.90;99.90
42913;DHT22;50720;54.324;18.558;2023-02-11T09:17:55;6.00;99.90
42913;DHT22;50720;54.324;18.558;2023-02-11T09:20:25;6.00;99.90
42913;DHT22;50720;54.324;18.558;2023-02-11T09:22:57;6.00;99.90
42913;DHT22;50720;54.324;18.558;2023-02-11T09:25:26;6.10;99.90
42913;DHT22;50720;54.324;18.558;2023-02-11T09:27:56;6.10;99.90
42913;DHT22;50720;54.324;18.558;2023-02-11T09:30:27;6.10;99.90
42913;DHT22;50720;54.324;18.558;2023-02-11T09:32:57;6.10;99.90
42913;DHT22;50720;54.324;18.558;2023-02-11T09:35:27;6.30;99.90
42913;DHT22;50720;54.324;18.558;2023-02-11T09:37:57;6.30;99.90
42913;DHT22;50720;54.324;18.558;2023-02-11T09:40:27;6.30;99.90
42913;DHT22;50720;54.324;18.558;2023-02-11T09:43:02;6.30;99.90
42913;DHT22;50720;54.324;18.558;2023-02-11T09:45:34;6.30;99.90
42913;DHT22;50720;54.324;18.558;2023-02-11T09:48:09;6.30;99.90
42913;DHT22;50720;54.324;18.558;2023-02-11T09:50:43;6.20;99.90
42913;DHT22;50720;54.324;18.558;2023-02-11T09:53:17;6.20;99.90
42913;DHT22;50720;54.324;18.558;2023-02-11T09:55:50;6.20;99.90
42913;DHT22;50720;54.324;18.558;2023-02-11T09:58:26;6.20;99.90
42913;DHT22;50720;54.324;18.558;2023-02-11T10:01:03;6.30;99.90
42913;DHT22;50720;54.324;18.558;2023-02-11T10:06:38;6.20;99.90
42913;DHT22;50720;54.324;18.558;2023-02-11T10:09:30;6.30;99.90
42913;DHT22;50720;54.324;18.558;2023-02-11T10:12:21;6.30;99.90
42913;DHT22;50720;54.324;18.558;2023-02-11T10:15:17;6.40;99.90
42913;DHT22;50720;54.324;18.558;2023-02-11T10:18:02;6.40;99.90
42913;DHT22;50720;54.324;18.558;2023-02-11T10:20:35;6.50;99.90
42913;DHT22;50720;54.324;18.558;2023-02-11T10:23:12;6.60;99.90
42913;DHT22;50720;54.324;18.558;2023-02-11T10:25:45;6.50;99.90
42913;DHT22;50720;54.324;18.558;2023-02-11T10:28:16;6.50;99.90
42913;DHT22;50720;54.324;18.558;2023-02-11T10:30:54;6.50;99.90
42913;DHT22;50720;54.324;18.558;2023-02-11T10:33:30;6.40;99.90
42913;DHT22;50720;54.324;18.558;2023-02-11T10:36:00;6.50;99.90
42913;DHT22;50720;54.324;18.558;2023-02-11T10:38:30;6.50;99.90
42913;DHT22;50720;54.324;18.558;2023-02-11T10:41:00;6.50;99.90
42913;DHT22;50720;54.324;18.558;2023-02-11T10:43:31;6.50;99.90
42913;DHT22;50720;54.324;18.558;2023-02-11T10:46:03;6.50;99.90
42913;DHT22;50720;54.324;18.558;2023-02-11T10:48:41;6.50;99.90
42913;DHT22;50720;54.324;18.558;2023-02-11T10:51:18;6.40;99.90
42913;DHT22;50720;54.324;18.558;2023-02-11T10:53:49;6.40;99.90
42913;DHT22;50720;54.324;18.558;2023-02-11T10:56:22;6.40;99.90
42913;DHT22;50720;54.324;18.558;2023-02-11T10:58:57;6.40;99.90
42913;DHT22;50720;54.324;18.558;2023-02-11T11:01:42;6.30;99.90
42913;DHT22;50720;54.324;18.558;2023-02-11T11:04:39;6.30;99.90
42913;DHT22;50720;54.324;18.558;2023-02-11T11:07:15;6.30;99.90
42913;DHT22;50720;54.324;18.558;2023-02-11T11:09:52;6.30;99.90
42913;DHT22;50720;54.324;18.558;2023-02-11T11:12:34;6.30;99.90
42913;DHT22;50720;54.324;18.558;2023-02-11T11:15:17;6.30;99.90
42913;DHT22;50720;54.324;18.558;2023-02-11T11:17:48;6.30;99.90
42913;DHT22;50720;54.324;18.558;2023-02-11T11:20:22;6.30;99.90
42913;DHT22;50720;54.324;18.558;2023-02-11T11:23:13;6.30;99.90
42913;DHT22;50720;54.324;18.558;2023-02-11T11:25:45;6.30;99.90
42913;DHT22;50720;54.324;18.558;2023-02-11T11:28:28;6.30;99.90
42913;DHT22;50720;54.324;18.558;2023-02-11T11:30:58;6.30;99.90
42913;DHT22;50720;54.324;18.558;2023-02-11T11:33:32;6.30;99.90
42913;DHT22;50720;54.324;18.558;2023-02-11T11:36:06;6.30;99.90
42913;DHT22;50720;54.324;18.558;2023-02-11T11:38:42;6.30;99.90
42913;DHT22;50720;54.324;18.558;2023-02-11T11:41:22;6.40;99.90
42913;DHT22;50720;54.324;18.558;2023-02-11T11:43:55;6.40;99.90
42913;DHT22;50720;54.324;18.558;2023-02-11T11:46:27;6.40;99.90
42913;DHT22;50720;54.324;18.558;2023-02-11T11:49:16;6.40;99.90
42913;DHT22;50720;54.324;18.558;2023-02-11T11:52:00;6.40;99.90
42913;DHT22;50720;54.324;18.558;2023-02-11T11:54:33;6.40;99.90
42913;DHT22;50720;54.324;18.558;2023-02-11T11:57:10;6.40;99.90
42913;DHT22;50720;54.324;18.558;2023-02-11T11:59:41;6.40;99.90
42913;DHT22;50720;54.324;18.558;2023-02-11T12:02:27;6.40;99.90
42913;DHT22;50720;54.324;18.558;2023-02-11T12:05:08;6.40;99.90
42913;DHT22;50720;54.324;18.558;2023-02-11T12:07:53;6.50;99.90
42913;DHT22;50720;54.324;18.558;2023-02-11T12:10:34;6.50;99.90
42913;DHT22;50720;54.324;18.558;2023-02-11T12:13:18;6.50;99.90
42913;DHT22;50720;54.324;18.558;2023-02-11T12:15:58;6.60;99.90
42913;DHT22;50720;54.324;18.558;2023-02-11T12:18:48;6.60;99.90
42913;DHT22;50720;54.324;18.558;2023-02-11T12:21:33;6.60;99.90
42913;DHT22;50720;54.324;18.558;2023-02-11T12:24:27;6.70;99.90
42913;DHT22;50720;54.324;18.558;2023-02-11T12:27:05;6.80;99.90
42913;DHT22;50720;54.324;18.558;2023-02-11T12:29:47;6.80;99.90
42913;DHT22;50720;54.324;18.558;2023-02-11T12:32:29;6.90;99.90
42913;DHT22;50720;54.324;18.558;2023-02-11T12:35:21;7.00;99.90
42913;DHT22;50720;54.324;18.558;2023-02-11T12:38:15;7.00;99.90
42913;DHT22;50720;54.324;18.558;2023-02-11T12:40:57;7.00;99.90
42913;DHT22;50720;54.324;18.558;2023-02-11T12:43:33;7.00;99.90
42913;DHT22;50720;54.324;18.558;2023-02-11T12:46:33;7.00;99.90
42913;DHT22;50720;54.324;18.558;2023-02-11T12:49:30;7.00;99.90
42913;DHT22;50720;54.324;18.558;2023-02-11T12:52:30;7.00;99.90
42913;DHT22;50720;54.324;18.558;2023-02-11T12:55:20;7.10;99.90
42913;DHT22;50720;54.324;18.558;2023-02-11T12:57:54;7.00;99.90
42913;DHT22;50720;54.324;18.558;2023-02-11T13:00:32;7.10;99.90
42913;DHT22;50720;54.324;18.558;2023-02-11T13:03:11;7.10;99.90
42913;DHT22;50720;54.324;18.558;2023-02-11T13:05:46;7.20;99.90
42913;DHT22;50720;54.324;18.558;2023-02-11T13:08:21;7.20;99.90
42913;DHT22;50720;54.324;18.558;2023-02-11T13:10:56;7.20;99.90
42913;DHT22;50720;54.324;18.558;2023-02-11T13:13:30;7.20;99.90
42913;DHT22;50720;54.324;18.558;2023-02-11T13:16:06;7.30;99.90
42913;DHT22;50720;54.324;18.558;2023-02-11T13:18:49;7.30;99.90
42913;DHT22;50720;54.324;18.558;2023-02-11T13:21:35;7.30;99.90
42913;DHT22;50720;54.324;18.558;2023-02-11T13:24:22;7.30;99.90
42913;DHT22;50720;54.324;18.558;2023-02-11T13:27:04;7.30;99.90
42913;DHT22;50720;54.324;18.558;2023-02-11T13:30:11;7.30;99.90
42913;DHT22;50720;54.324;18.558;2023-02-11T13:33:15;7.30;99.90
42913;DHT22;50720;54.324;18.558;2023-02-11T13:35:48;7.40;99.90
42913;DHT22;50720;54.324;18.558;2023-02-11T13:38:38;7.30;99.90
42913;DHT22;50720;54.324;18.558;2023-02-11T13:41:16;7.40;99.90
42913;DHT22;50720;54.324;18.558;2023-02-11T13:46:53;7.40;99.90
42913;DHT22;50720;54.324;18.558;2023-02-11T13:49:29;7.40;99.90
42913;DHT22;50720;54.324;18.558;2023-02-11T13:52:00;7.40;99.90
42913;DHT22;50720;54.324;18.558;2023-02-11T13:54:34;7.30;99.90
42913;DHT22;50720;54.324;18.558;2023-02-11T13:57:30;7.30;99.90
42913;DHT22;50720;54.324;18.558;2023-02-11T14:00:03;7.30;99.90
42913;DHT22;50720;54.324;18.558;2023-02-11T14:02:37;7.30;99.90
42913;DHT22;50720;54.324;18.558;2023-02-11T14:06:09;7.30;99.90
42913;DHT22;50720;54.324;18.558;2023-02-11T14:12:25;7.30;99.90
42913;DHT22;50720;54.324;18.558;2023-02-11T14:15:00;7.30;99.90
42913;DHT22;50720;54.324;18.558;2023-02-11T14:17:34;7.30;99.90
42913;DHT22;50720;54.324;18.558;2023-02-11T14:20:37;7.30;99.90
42913;DHT22;50720;54.324;18.558;2023-02-11T14:23:21;7.40;99.90
42913;DHT22;50720;54.324;18.558;2023-02-11T14:26:02;7.40;99.90
42913;DHT22;50720;54.324;18.558;2023-02-11T14:28:33;7.40;99.90
42913;DHT22;50720;54.324;18.558;2023-02-11T14:31:09;7.30;99.90
42913;DHT22;50720;54.324;18.558;2023-02-11T14:33:59;7.30;99.90
42913;DHT22;50720;54.324;18.558;2023-02-11T14:39:55;7.30;99.90
42913;DHT22;50720;54.324;18.558;2023-02-11T14:42:27;7.30;99.90
42913;DHT22;50720;54.324;18.558;2023-02-11T14:45:03;7.30;99.90
42913;DHT22;50720;54.324;18.558;2023-02-11T14:47:42;7.30;99.90
42913;DHT22;50720;54.324;18.558;2023-02-11T14:50:17;7.40;99.90
42913;DHT22;50720;54.324;18.558;2023-02-11T14:52:49;7.30;99.90
42913;DHT22;50720;54.324;18.558;2023-02-11T14:55:28;7.30;99.90
42913;DHT22;50720;54.324;18.558;2023-02-11T14:58:15;7.40;99.90
42913;DHT22;50720;54.324;18.558;2023-02-11T15:00:52;7.30;99.90
42913;DHT22;50720;54.324;18.558;2023-02-11T15:03:27;7.40;99.90
42913;DHT22;50720;54.324;18.558;2023-02-11T15:05:59;7.30;99.90
42913;DHT22;50720;54.324;18.558;2023-02-11T15:08:34;7.30;99.90
42913;DHT22;50720;54.324;18.558;2023-02-11T15:11:09;7.30;99.90
42913;DHT22;50720;54.324;18.558;2023-02-11T15:13:41;7.30;99.90
42913;DHT22;50720;54.324;18.558;2023-02-11T15:16:17;7.30;99.90
42913;DHT22;50720;54.324;18.558;2023-02-11T15:18:50;7.20;99.90
42913;DHT22;50720;54.324;18.558;2023-02-11T15:21:23;7.10;99.90
42913;DHT22;50720;54.324;18.558;2023-02-11T15:24:03;7.10;99.90
42913;DHT22;50720;54.324;18.558;2023-02-11T15:26:34;7.00;99.90
42913;DHT22;50720;54.324;18.558;2023-02-11T15:29:13;6.90;99.90
42913;DHT22;50720;54.324;18.558;2023-02-11T15:31:44;6.90;99.90
42913;DHT22;50720;54.324;18.558;2023-02-11T15:34:13;6.90;99.90
42913;DHT22;50720;54.324;18.558;2023-02-11T15:36:43;6.80;99.90
42913;DHT22;50720;54.324;18.558;2023-02-11T15:39:26;6.80;99.90
42913;DHT22;50720;54.324;18.558;2023-02-11T15:42:16;6.80;99.90
42913;DHT22;50720;54.324;18.558;2023-02-11T15:44:46;6.70;99.90
42913;DHT22;50720;54.324;18.558;2023-02-11T15:47:23;6.70;99.90
42913;DHT22;50720;54.324;18.558;2023-02-11T15:49:53;6.70;99.90
42913;DHT22;50720;54.324;18.558;2023-02-11T15:52:24;6.70;99.90
42913;DHT22;50720;54.324;18.558;2023-02-11T15:54:57;6.70;99.90
42913;DHT22;50720;54.324;18.558;2023-02-11T15:57:28;6.70;99.90
42913;DHT22;50720;54.324;18.558;2023-02-11T15:59:58;6.60;99.90
42913;DHT22;50720;54.324;18.558;2023-02-11T16:02:34;6.50;99.90
42913;DHT22;50720;54.324;18.558;2023-02-11T16:05:28;6.40;99.90
42913;DHT22;50720;54.324;18.558;2023-02-11T16:07:59;6.30;99.90
42913;DHT22;50720;54.324;18.558;2023-02-11T16:10:33;6.30;99.90
42913;DHT22;50720;54.324;18.558;2023-02-11T16:13:17;6.20;99.90
42913;DHT22;50720;54.324;18.558;2023-02-11T16:15:49;6.20;99.90
42913;DHT22;50720;54.324;18.558;2023-02-11T16:18:28;6.20;99.90
42913;DHT22;50720;54.324;18.558;2023-02-11T16:21:06;6.20;99.90
42913;DHT22;50720;54.324;18.558;2023-02-11T16:23:42;6.10;99.90
42913;DHT22;50720;54.324;18.558;2023-02-11T16:26:26;6.20;99.90
42913;DHT22;50720;54.324;18.558;2023-02-11T16:29:04;6.10;99.90
42913;DHT22;50720;54.324;18.558;2023-02-11T16:31:36;6.00;99.90
42913;DHT22;50720;54.324;18.558;2023-02-11T16:34:15;6.00;99.90
42913;DHT22;50720;54.324;18.558;2023-02-11T16:36:45;6.00;99.90